sensor_id;sensor_type;location;lat;lon;timestamp;temperature;humidity
45060;DHT22;30799;49.060;9.312;2023-03-29T00:01:51;20.10;50.20
45060;DHT22;30799;49.060;9.312;2023-03-29T00:04:18;20.10;50.20
45060;DHT22;30799;49.060;9.312;2023-03-29T00:06:47;20.10;50.30
45060;DHT22;30799;49.060;9.312;2023-03-29T00:09:16;20.10;50.30
45060;DHT22;30799;49.060;9.312;2023-03-29T00:11:43;20.10;50.30
45060;DHT22;30799;49.060;9.312;2023-03-29T00:14:11;20.10;50.20
45060;DHT22;30799;49.060;9.312;2023-03-29T00:16:38;20.10;50.30
45060;DHT22;30799;49.060;9.312;2023-03-29T00:19:05;20.10;50.30
45060;DHT22;30799;49.060;9.312;2023-03-29T00:21:31;20.10;50.30
45060;DHT22;30799;49.060;9.312;2023-03-29T00:23:58;20.10;50.30
45060;DHT22;30799;49.060;9.312;2023-03-29T00:26:25;20.10;50.30
45060;DHT22;30799;49.060;9.312;2023-03-29T00:28:52;20.10;50.40
45060;DHT22;30799;49.060;9.312;2023-03-29T00:31:18;20.10;50.40
45060;DHT22;30799;49.060;9.312;2023-03-29T00:33:45;20.10;50.30
45060;DHT22;30799;49.060;9.312;2023-03-29T00:36:12;20.10;50.40
45060;DHT22;30799;49.060;9.312;2023-03-29T00:38:40;20.10;50.30
45060;DHT22;30799;49.060;9.312;2023-03-29T00:41:07;20.10;50.30
45060;DHT22;30799;49.060;9.312;2023-03-29T00:43:55;20.10;50.40
45060;DHT22;30799;49.060;9.312;2023-03-29T00:46:23;20.10;50.40
45060;DHT22;30799;49.060;9.312;2023-03-29T00:48:52;20.10;50.40
45060;DHT22;30799;49.060;9.312;2023-03-29T00:51:23;20.10;50.30
45060;DHT22;30799;49.060;9.312;2023-03-29T00:53:54;20.10;50.40
45060;DHT22;30799;49.060;9.312;2023-03-29T00:56:27;20.10;50.50
45060;DHT22;30799;49.060;9.312;2023-03-29T00:59:10;20.10;50.40
45060;DHT22;30799;49.060;9.312;2023-03-29T01:01:40;20.10;50.40
45060;DHT22;30799;49.060;9.312;2023-03-29T01:04:17;20.10;50.40
45060;DHT22;30799;49.060;9.312;2023-03-29T01:06:56;20.10;50.50
45060;DHT22;30799;49.060;9.312;2023-03-29T01:09:26;20.10;50.50
45060;DHT22;30799;49.060;9.312;2023-03-29T01:11:57;20.10;50.40
45060;DHT22;30799;49.060;9.312;2023-03-29T01:14:34;20.10;50.40
45060;DHT22;30799;49.060;9.312;2023-03-29T01:17:02;20.10;51.00
45060;DHT22;30799;49.060;9.312;2023-03-29T01:19:35;20.10;50.50
45060;DHT22;30799;49.060;9.312;2023-03-29T01:27:59;20.10;50.40
45060;DHT22;30799;49.060;9.312;2023-03-29T01:30:32;20.10;50.50
45060;DHT22;30799;49.060;9.312;2023-03-29T01:36:18;20.10;50.50
45060;DHT22;30799;49.060;9.312;2023-03-29T01:38:58;20.10;50.50
45060;DHT22;30799;49.060;9.312;2023-03-29T01:41:50;20.10;50.60
45060;DHT22;30799;49.060;9.312;2023-03-29T01:45:07;20.10;50.50
45060;DHT22;30799;49.060;9.312;2023-03-29T01:48:12;20.10;50.50
45060;DHT22;30799;49.060;9.312;2023-03-29T01:50:13;20.10;50.50
45060;DHT22;30799;49.060;9.312;2023-03-29T01:53:06;20.10;50.50
45060;DHT22;30799;49.060;9.312;2023-03-29T01:55:37;20.10;50.50
45060;DHT22;30799;49.060;9.312;2023-03-29T01:58:07;20.10;50.50
45060;DHT22;30799;49.060;9.312;2023-03-29T02:00:37;20.10;50.50
45060;DHT22;30799;49.060;9.312;2023-03-29T02:03:07;20.10;50.50
45060;DHT22;30799;49.060;9.312;2023-03-29T02:05:36;20.10;50.50
45060;DHT22;30799;49.060;9.312;2023-03-29T02:08:06;20.10;50.60
45060;DHT22;30799;49.060;9.312;2023-03-29T02:10:34;20.10;50.50
45060;DHT22;30799;49.060;9.312;2023-03-29T02:13:03;20.10;50.50
45060;DHT22;30799;49.060;9.312;2023-03-29T02:15:29;20.10;50.60
45060;DHT22;30799;49.060;9.312;2023-03-29T02:17:56;20.10;50.50
45060;DHT22;30799;49.060;9.312;2023-03-29T02:20:27;20.10;50.60
45060;DHT22;30799;49.060;9.312;2023-03-29T02:25:30;20.10;50.60
45060;DHT22;30799;49.060;9.312;2023-03-29T02:27:58;20.10;50.60
45060;DHT22;30799;49.060;9.312;2023-03-29T02:30:35;20.10;50.60
45060;DHT22;30799;49.060;9.312;2023-03-29T02:33:08;20.10;50.60
45060;DHT22;30799;49.060;9.312;2023-03-29T02:35:50;20.10;50.60
45060;DHT22;30799;49.060;9.312;2023-03-29T02:38:19;20.10;50.60
45060;DHT22;30799;49.060;9.312;2023-03-29T02:40:46;20.10;50.60
45060;DHT22;30799;49.060;9.312;2023-03-29T02:43:14;20.20;50.60
45060;DHT22;30799;49.060;9.312;2023-03-29T02:45:43;20.20;50.60
45060;DHT22;30799;49.060;9.312;2023-03-29T02:48:12;20.20;50.60
45060;DHT22;30799;49.060;9.312;2023-03-29T02:50:44;20.20;50.70
45060;DHT22;30799;49.060;9.312;2023-03-29T02:53:16;20.10;50.60
45060;DHT22;30799;49.060;9.312;2023-03-29T02:55:44;20.10;50.60
45060;DHT22;30799;49.060;9.312;2023-03-29T02:58:13;20.20;50.60
45060;DHT22;30799;49.060;9.312;2023-03-29T03:00:44;20.20;50.60
45060;DHT22;30799;49.060;9.312;2023-03-29T03:03:12;20.20;50.70
45060;DHT22;30799;49.060;9.312;2023-03-29T03:05:40;20.10;50.50
45060;DHT22;30799;49.060;9.312;2023-03-29T03:08:08;20.10;50.50
45060;DHT22;30799;49.060;9.312;2023-03-29T03:10:35;20.20;50.60
45060;DHT22;30799;49.060;9.312;2023-03-29T03:13:02;20.20;50.60
45060;DHT22;30799;49.060;9.312;2023-03-29T03:15:28;20.20;50.60
45060;DHT22;30799;49.060;9.312;2023-03-29T03:17:56;20.20;50.60
45060;DHT22;30799;49.060;9.312;2023-03-29T03:20:23;20.20;50.60
45060;DHT22;30799;49.060;9.312;2023-03-29T03:22:49;20.20;50.60
45060;DHT22;30799;49.060;9.312;2023-03-29T03:25:18;20.20;50.60
45060;DHT22;30799;49.060;9.312;2023-03-29T03:27:48;20.20;50.60
45060;DHT22;30799;49.060;9.312;2023-03-29T03:30:16;20.20;50.60
45060;DHT22;30799;49.060;9.312;2023-03-29T03:32:43;20.20;50.60
45060;DHT22;30799;49.060;9.312;2023-03-29T03:35:10;20.20;50.60
45060;DHT22;30799;49.060;9.312;2023-03-29T03:37:38;20.20;50.60
45060;DHT22;30799;49.060;9.312;2023-03-29T03:40:06;20.20;50.60
45060;DHT22;30799;49.060;9.312;2023-03-29T03:42:34;20.20;50.60
45060;DHT22;30799;49.060;9.312;2023-03-29T03:45:01;20.20;50.60
45060;DHT22;30799;49.060;9.312;2023-03-29T03:47:27;20.20;50.60
45060;DHT22;30799;49.060;9.312;2023-03-29T03:49:54;20.20;50.60
45060;DHT22;30799;49.060;9.312;2023-03-29T03:52:21;20.20;50.60
45060;DHT22;30799;49.060;9.312;2023-03-29T03:54:48;20.20;50.60
45060;DHT22;30799;49.060;9.312;2023-03-29T03:57:15;20.20;50.60
45060;DHT22;30799;49.060;9.312;2023-03-29T03:59:42;20.20;50.70
45060;DHT22;30799;49.060;9.312;2023-03-29T04:02:09;20.20;50.70
45060;DHT22;30799;49.060;9.312;2023-03-29T04:04:36;20.20;51.30
45060;DHT22;30799;49.060;9.312;2023-03-29T04:07:03;20.20;50.70
45060;DHT22;30799;49.060;9.312;2023-03-29T04:09:30;20.20;50.70
45060;DHT22;30799;49.060;9.312;2023-03-29T04:11:59;20.20;50.70
45060;DHT22;30799;49.060;9.312;2023-03-29T04:14:27;20.20;50.70
45060;DHT22;30799;49.060;9.312;2023-03-29T04:16:54;20.20;50.70
45060;DHT22;30799;49.060;9.312;2023-03-29T04:19:20;20.20;50.70
45060;DHT22;30799;49.060;9.312;2023-03-29T04:21:47;20.20;50.60
45060;DHT22;30799;49.060;9.312;2023-03-29T04:24:15;20.20;50.80
45060;DHT22;30799;49.060;9.312;2023-03-29T04:26:43;20.20;50.70
45060;DHT22;30799;49.060;9.312;2023-03-29T04:29:09;20.30;50.70
45060;DHT22;30799;49.060;9.312;2023-03-29T04:31:36;20.30;50.80
45060;DHT22;30799;49.060;9.312;2023-03-29T04:34:03;20.20;50.70
45060;DHT22;30799;49.060;9.312;2023-03-29T04:36:29;20.20;50.70
45060;DHT22;30799;49.060;9.312;2023-03-29T04:38:56;20.30;50.80
45060;DHT22;30799;49.060;9.312;2023-03-29T04:41:27;20.30;50.80
45060;DHT22;30799;49.060;9.312;2023-03-29T04:43:54;20.20;50.70
45060;DHT22;30799;49.060;9.312;2023-03-29T04:46:21;20.30;51.00
45060;DHT22;30799;49.060;9.312;2023-03-29T04:48:51;20.20;51.00
45060;DHT22;30799;49.060;9.312;2023-03-29T04:51:19;20.30;51.00
45060;DHT22;30799;49.060;9.312;2023-03-29T04:53:48;20.20;50.90
45060;DHT22;30799;49.060;9.312;2023-03-29T04:56:15;20.20;50.90
45060;DHT22;30799;49.060;9.312;2023-03-29T04:58:42;20.20;50.80
45060;DHT22;30799;49.060;9.312;2023-03-29T05:01:10;20.20;51.00
45060;DHT22;30799;49.060;9.312;2023-03-29T05:03:37;20.30;51.10
45060;DHT22;30799;49.060;9.312;2023-03-29T05:06:07;20.30;51.50
45060;DHT22;30799;49.060;9.312;2023-03-29T05:08:35;20.30;51.80
45060;DHT22;30799;49.060;9.312;2023-03-29T05:11:07;20.30;52.00
45060;DHT22;30799;49.060;9.312;2023-03-29T05:13:34;20.30;51.90
45060;DHT22;30799;49.060;9.312;2023-03-29T05:16:01;20.30;51.80
45060;DHT22;30799;49.060;9.312;2023-03-29T05:18:30;20.40;50.70
45060;DHT22;30799;49.060;9.312;2023-03-29T05:20:57;20.40;51.40
45060;DHT22;30799;49.060;9.312;2023-03-29T05:23:25;20.30;52.30
45060;DHT22;30799;49.060;9.312;2023-03-29T05:25:52;20.30;52.60
45060;DHT22;30799;49.060;9.312;2023-03-29T05:28:19;20.30;53.00
45060;DHT22;30799;49.060;9.312;2023-03-29T05:30:46;20.20;53.40
45060;DHT22;30799;49.060;9.312;2023-03-29T05:33:24;20.20;53.50
45060;DHT22;30799;49.060;9.312;2023-03-29T05:35:58;20.30;53.60
45060;DHT22;30799;49.060;9.312;2023-03-29T05:38:25;20.30;53.50
45060;DHT22;30799;49.060;9.312;2023-03-29T05:40:52;20.20;53.60
45060;DHT22;30799;49.060;9.312;2023-03-29T05:43:19;20.20;53.60
45060;DHT22;30799;49.060;9.312;2023-03-29T05:45:46;20.30;53.70
45060;DHT22;30799;49.060;9.312;2023-03-29T05:48:13;20.30;53.70
45060;DHT22;30799;49.060;9.312;2023-03-29T05:50:39;20.30;53.80
45060;DHT22;30799;49.060;9.312;2023-03-29T05:53:06;20.20;53.90
45060;DHT22;30799;49.060;9.312;2023-03-29T05:55:33;20.20;53.90
45060;DHT22;30799;49.060;9.312;2023-03-29T05:58:00;20.20;53.90
45060;DHT22;30799;49.060;9.312;2023-03-29T06:00:26;20.20;53.90
45060;DHT22;30799;49.060;9.312;2023-03-29T06:02:55;20.30;54.10
45060;DHT22;30799;49.060;9.312;2023-03-29T06:05:38;20.30;54.10
45060;DHT22;30799;49.060;9.312;2023-03-29T06:08:05;20.20;54.10
45060;DHT22;30799;49.060;9.312;2023-03-29T06:10:32;20.20;54.10
45060;DHT22;30799;49.060;9.312;2023-03-29T06:13:01;20.20;54.10
45060;DHT22;30799;49.060;9.312;2023-03-29T06:15:28;20.20;54.10
45060;DHT22;30799;49.060;9.312;2023-03-29T06:17:55;20.20;54.30
45060;DHT22;30799;49.060;9.312;2023-03-29T06:20:22;20.20;54.20
45060;DHT22;30799;49.060;9.312;2023-03-29T06:22:49;20.20;54.20
45060;DHT22;30799;49.060;9.312;2023-03-29T06:25:16;20.20;54.20
45060;DHT22;30799;49.060;9.312;2023-03-29T06:27:44;20.20;54.20
45060;DHT22;30799;49.060;9.312;2023-03-29T06:30:13;20.20;54.20
45060;DHT22;30799;49.060;9.312;2023-03-29T06:32:41;20.20;54.20
45060;DHT22;30799;49.060;9.312;2023-03-29T06:35:09;20.20;54.30
45060;DHT22;30799;49.060;9.312;2023-03-29T06:37:36;20.20;54.20
45060;DHT22;30799;49.060;9.312;2023-03-29T06:40:06;20.20;54.20
45060;DHT22;30799;49.060;9.312;2023-03-29T06:42:34;20.20;54.30
45060;DHT22;30799;49.060;9.312;2023-03-29T06:45:01;20.20;54.20
45060;DHT22;30799;49.060;9.312;2023-03-29T06:47:29;20.20;54.30
45060;DHT22;30799;49.060;9.312;2023-03-29T06:49:57;20.20;54.20
45060;DHT22;30799;49.060;9.312;2023-03-29T06:52:23;20.20;54.30
45060;DHT22;30799;49.060;9.312;2023-03-29T06:54:50;20.20;54.30
45060;DHT22;30799;49.060;9.312;2023-03-29T06:57:17;20.20;54.30
45060;DHT22;30799;49.060;9.312;2023-03-29T06:59:44;20.20;54.30
45060;DHT22;30799;49.060;9.312;2023-03-29T07:02:10;20.20;54.30
45060;DHT22;30799;49.060;9.312;2023-03-29T07:04:41;20.20;54.30
45060;DHT22;30799;49.060;9.312;2023-03-29T07:07:08;20.20;54.20
45060;DHT22;30799;49.060;9.312;2023-03-29T07:09:45;20.10;54.20
45060;DHT22;30799;49.060;9.312;2023-03-29T07:12:20;20.20;54.30
45060;DHT22;30799;49.060;9.312;2023-03-29T07:14:47;20.20;54.30
45060;DHT22;30799;49.060;9.312;2023-03-29T07:17:14;20.10;54.20
45060;DHT22;30799;49.060;9.312;2023-03-29T07:19:42;20.10;54.20
45060;DHT22;30799;49.060;9.312;2023-03-29T07:22:08;20.10;54.20
45060;DHT22;30799;49.060;9.312;2023-03-29T07:24:36;20.10;54.20
45060;DHT22;30799;49.060;9.312;2023-03-29T07:27:03;20.10;54.20
45060;DHT22;30799;49.060;9.312;2023-03-29T07:29:31;20.10;54.20
45060;DHT22;30799;49.060;9.312;2023-03-29T07:31:57;20.10;54.30
45060;DHT22;30799;49.060;9.312;2023-03-29T07:34:24;20.10;54.20
45060;DHT22;30799;49.060;9.312;2023-03-29T07:36:51;20.10;54.20
45060;DHT22;30799;49.060;9.312;2023-03-29T07:39:17;20.10;54.20
45060;DHT22;30799;49.060;9.312;2023-03-29T07:41:44;20.10;54.20
45060;DHT22;30799;49.060;9.312;2023-03-29T07:44:11;20.10;54.20
45060;DHT22;30799;49.060;9.312;2023-03-29T07:46:38;20.10;54.20
45060;DHT22;30799;49.060;9.312;2023-03-29T07:49:04;20.10;54.20
45060;DHT22;30799;49.060;9.312;2023-03-29T07:51:33;20.10;54.20
45060;DHT22;30799;49.060;9.312;2023-03-29T07:54:02;20.10;54.30
45060;DHT22;30799;49.060;9.312;2023-03-29T07:56:28;20.10;54.20
45060;DHT22;30799;49.060;9.312;2023-03-29T07:58:55;20.10;54.20
45060;DHT22;30799;49.060;9.312;2023-03-29T08:01:23;20.10;54.20
45060;DHT22;30799;49.060;9.312;2023-03-29T08:03:50;20.10;54.20
45060;DHT22;30799;49.060;9.312;2023-03-29T08:06:17;20.10;54.20
45060;DHT22;30799;49.060;9.312;2023-03-29T08:08:44;20.20;54.60
45060;DHT22;30799;49.060;9.312;2023-03-29T08:11:11;20.10;54.20
45060;DHT22;30799;49.060;9.312;2023-03-29T08:13:37;20.10;54.50
45060;DHT22;30799;49.060;9.312;2023-03-29T08:16:04;20.10;54.20
45060;DHT22;30799;49.060;9.312;2023-03-29T08:18:31;20.10;54.20
45060;DHT22;30799;49.060;9.312;2023-03-29T08:21:00;20.10;54.20
45060;DHT22;30799;49.060;9.312;2023-03-29T08:23:27;20.10;54.20
45060;DHT22;30799;49.060;9.312;2023-03-29T08:25:54;20.10;54.20
45060;DHT22;30799;49.060;9.312;2023-03-29T08:28:21;20.00;54.20
45060;DHT22;30799;49.060;9.312;2023-03-29T08:30:47;20.00;54.20
45060;DHT22;30799;49.060;9.312;2023-03-29T08:33:15;20.10;54.30
45060;DHT22;30799;49.060;9.312;2023-03-29T08:35:42;20.00;54.20
45060;DHT22;30799;49.060;9.312;2023-03-29T08:38:09;20.00;54.20
45060;DHT22;30799;49.060;9.312;2023-03-29T08:40:36;20.10;54.20
45060;DHT22;30799;49.060;9.312;2023-03-29T08:48:34;20.00;54.20
45060;DHT22;30799;49.060;9.312;2023-03-29T08:51:45;20.00;54.20
45060;DHT22;30799;49.060;9.312;2023-03-29T08:54:20;20.00;54.20
45060;DHT22;30799;49.060;9.312;2023-03-29T08:56:50;20.00;54.20
45060;DHT22;30799;49.060;9.312;2023-03-29T08:59:23;20.00;54.20
45060;DHT22;30799;49.060;9.312;2023-03-29T09:01:54;20.00;54.20
45060;DHT22;30799;49.060;9.312;2023-03-29T09:04:25;20.00;54.20
45060;DHT22;30799;49.060;9.312;2023-03-29T09:06:53;20.00;54.20
45060;DHT22;30799;49.060;9.312;2023-03-29T09:09:21;20.00;54.30
45060;DHT22;30799;49.060;9.312;2023-03-29T09:20:29;20.00;54.30
45060;DHT22;30799;49.060;9.312;2023-03-29T09:23:09;20.00;54.20
45060;DHT22;30799;49.060;9.312;2023-03-29T09:28:35;20.00;54.30
45060;DHT22;30799;49.060;9.312;2023-03-29T09:31:24;20.00;54.40
45060;DHT22;30799;49.060;9.312;2023-03-29T09:34:02;20.00;54.40
45060;DHT22;30799;49.060;9.312;2023-03-29T09:36:48;20.00;54.40
45060;DHT22;30799;49.060;9.312;2023-03-29T09:39:18;20.00;54.40
45060;DHT22;30799;49.060;9.312;2023-03-29T09:42:04;20.00;54.40
45060;DHT22;30799;49.060;9.312;2023-03-29T09:44:46;20.00;54.40
45060;DHT22;30799;49.060;9.312;2023-03-29T09:47:37;20.00;54.40
45060;DHT22;30799;49.060;9.312;2023-03-29T09:50:14;20.00;54.50
45060;DHT22;30799;49.060;9.312;2023-03-29T09:52:56;20.00;55.10
45060;DHT22;30799;49.060;9.312;2023-03-29T09:55:29;20.00;54.50
45060;DHT22;30799;49.060;9.312;2023-03-29T09:57:59;20.00;54.50
45060;DHT22;30799;49.060;9.312;2023-03-29T10:00:27;20.00;54.50
45060;DHT22;30799;49.060;9.312;2023-03-29T10:02:56;20.00;54.40
45060;DHT22;30799;49.060;9.312;2023-03-29T10:05:28;20.00;54.50
45060;DHT22;30799;49.060;9.312;2023-03-29T10:07:59;20.00;54.40
45060;DHT22;30799;49.060;9.312;2023-03-29T10:10:33;20.00;54.40
45060;DHT22;30799;49.060;9.312;2023-03-29T10:13:03;20.00;54.40
45060;DHT22;30799;49.060;9.312;2023-03-29T10:15:31;20.00;54.50
45060;DHT22;30799;49.060;9.312;2023-03-29T10:18:05;20.00;54.40
45060;DHT22;30799;49.060;9.312;2023-03-29T10:20:35;20.00;54.40
45060;DHT22;30799;49.060;9.312;2023-03-29T10:23:06;20.00;54.40
45060;DHT22;30799;49.060;9.312;2023-03-29T10:25:36;20.00;54.50
45060;DHT22;30799;49.060;9.312;2023-03-29T10:28:14;20.00;54.40
45060;DHT22;30799;49.060;9.312;2023-03-29T10:30:44;20.00;54.40
45060;DHT22;30799;49.060;9.312;2023-03-29T10:33:18;20.00;55.00
45060;DHT22;30799;49.060;9.312;2023-03-29T10:35:47;20.00;54.40
45060;DHT22;30799;49.060;9.312;2023-03-29T10:38:17;20.00;54.40
45060;DHT22;30799;49.060;9.312;2023-03-29T10:40:46;20.00;54.40
45060;DHT22;30799;49.060;9.312;2023-03-29T10:43:21;20.00;54.40
45060;DHT22;30799;49.060;9.312;2023-03-29T10:45:52;20.00;54.40
45060;DHT22;30799;49.060;9.312;2023-03-29T10:48:26;20.00;54.50
45060;DHT22;30799;49.060;9.312;2023-03-29T10:50:57;20.00;54.50
45060;DHT22;30799;49.060;9.312;2023-03-29T10:53:28;20.00;54.50
45060;DHT22;30799;49.060;9.312;2023-03-29T10:56:11;20.00;54.50
45060;DHT22;30799;49.060;9.312;2023-03-29T10:58:57;20.00;54.50
45060;DHT22;30799;49.060;9.312;2023-03-29T11:01:54;20.00;54.50
45060;DHT22;30799;49.060;9.312;2023-03-29T11:07:27;20.00;54.50
45060;DHT22;30799;49.060;9.312;2023-03-29T11:15:55;20.00;54.60
45060;DHT22;30799;49.060;9.312;2023-03-29T11:18:34;20.00;54.60
45060;DHT22;30799;49.060;9.312;2023-03-29T11:29:05;20.00;54.60
45060;DHT22;30799;49.060;9.312;2023-03-29T11:31:59;20.00;54.60
45060;DHT22;30799;49.060;9.312;2023-03-29T11:34:54;20.10;54.60
45060;DHT22;30799;49.060;9.312;2023-03-29T11:42:59;20.00;54.70
45060;DHT22;30799;49.060;9.312;2023-03-29T11:45:34;20.00;54.70
45060;DHT22;30799;49.060;9.312;2023-03-29T11:48:05;20.00;54.70
45060;DHT22;30799;49.060;9.312;2023-03-29T11:50:56;20.00;54.60
45060;DHT22;30799;49.060;9.312;2023-03-29T11:53:29;20.00;54.50
45060;DHT22;30799;49.060;9.312;2023-03-29T11:56:05;20.00;54.50
45060;DHT22;30799;49.060;9.312;2023-03-29T11:58:38;20.00;54.60
45060;DHT22;30799;49.060;9.312;2023-03-29T12:01:12;20.00;54.50
45060;DHT22;30799;49.060;9.312;2023-03-29T12:03:42;20.00;54.50
45060;DHT22;30799;49.060;9.312;2023-03-29T12:06:19;20.00;54.60
45060;DHT22;30799;49.060;9.312;2023-03-29T12:08:57;20.00;54.60
45060;DHT22;30799;49.060;9.312;2023-03-29T12:11:37;20.00;54.70
45060;DHT22;30799;49.060;9.312;2023-03-29T12:14:12;20.00;54.70
45060;DHT22;30799;49.060;9.312;2023-03-29T12:16:56;20.00;54.60
45060;DHT22;30799;49.060;9.312;2023-03-29T12:19:41;20.00;54.50
45060;DHT22;30799;49.060;9.312;2023-03-29T12:22:10;20.00;54.60
45060;DHT22;30799;49.060;9.312;2023-03-29T12:24:39;20.00;54.60
45060;DHT22;30799;49.060;9.312;2023-03-29T12:36:35;20.00;54.60
45060;DHT22;30799;49.060;9.312;2023-03-29T12:39:16;20.00;54.60
45060;DHT22;30799;49.060;9.312;2023-03-29T12:41:44;20.00;54.60
45060;DHT22;30799;49.060;9.312;2023-03-29T12:44:20;20.00;54.70
45060;DHT22;30799;49.060;9.312;2023-03-29T12:46:56;20.00;54.80
45060;DHT22;30799;49.060;9.312;2023-03-29T12:49:27;20.00;54.80
45060;DHT22;30799;49.060;9.312;2023-03-29T12:51:56;20.00;54.80
45060;DHT22;30799;49.060;9.312;2023-03-29T12:54:27;20.00;54.80
45060;DHT22;30799;49.060;9.312;2023-03-29T12:57:17;20.00;54.80
45060;DHT22;30799;49.060;9.312;2023-03-29T12:59:46;20.00;54.80
45060;DHT22;30799;49.060;9.312;2023-03-29T13:04:57;20.00;54.90
45060;DHT22;30799;49.060;9.312;2023-03-29T13:09:54;20.00;54.90
45060;DHT22;30799;49.060;9.312;2023-03-29T13:12:24;20.00;54.90
45060;DHT22;30799;49.060;9.312;2023-03-29T13:14:58;20.00;54.90
45060;DHT22;30799;49.060;9.312;2023-03-29T13:20:39;20.00;54.90
45060;DHT22;30799;49.060;9.312;2023-03-29T13:26:05;20.00;54.90
45060;DHT22;30799;49.060;9.312;2023-03-29T13:31:43;20.00;54.90
45060;DHT22;30799;49.060;9.312;2023-03-29T13:34:34;20.00;54.90
45060;DHT22;30799;49.060;9.312;2023-03-29T13:37:23;20.00;54.90
45060;DHT22;30799;49.060;9.312;2023-03-29T13:39:54;20.00;54.90
45060;DHT22;30799;49.060;9.312;2023-03-29T13:45:22;20.00;54.80
45060;DHT22;30799;49.060;9.312;2023-03-29T13:48:03;20.00;54.80
45060;DHT22;30799;49.060;9.312;2023-03-29T13:50:37;20.00;54.90
45060;DHT22;30799;49.060;9.312;2023-03-29T13:53:27;20.00;54.90
45060;DHT22;30799;49.060;9.312;2023-03-29T13:55:56;20.00;54.90
45060;DHT22;30799;49.060;9.312;2023-03-29T13:58:50;20.00;54.90
45060;DHT22;30799;49.060;9.312;2023-03-29T14:01:27;20.00;54.90
45060;DHT22;30799;49.060;9.312;2023-03-29T14:03:55;20.00;54.90
45060;DHT22;30799;49.060;9.312;2023-03-29T14:06:29;20.00;55.00
45060;DHT22;30799;49.060;9.312;2023-03-29T14:09:01;20.00;54.90
45060;DHT22;30799;49.060;9.312;2023-03-29T14:11:30;20.00;54.90
45060;DHT22;30799;49.060;9.312;2023-03-29T14:13:58;20.00;54.90
45060;DHT22;30799;49.060;9.312;2023-03-29T14:16:30;20.00;54.90
45060;DHT22;30799;49.060;9.312;2023-03-29T14:19:28;20.00;54.90
45060;DHT22;30799;49.060;9.312;2023-03-29T14:21:59;20.00;55.50
45060;DHT22;30799;49.060;9.312;2023-03-29T14:24:33;20.00;54.90
45060;DHT22;30799;49.060;9.312;2023-03-29T14:27:02;20.00;54.90
45060;DHT22;30799;49.060;9.312;2023-03-29T14:29:31;20.00;54.90
45060;DHT22;30799;49.060;9.312;2023-03-29T14:32:06;20.00;54.90
45060;DHT22;30799;49.060;9.312;2023-03-29T14:34:34;20.00;54.90
45060;DHT22;30799;49.060;9.312;2023-03-29T14:37:00;20.00;54.90
45060;DHT22;30799;49.060;9.312;2023-03-29T14:39:31;20.00;54.90
45060;DHT22;30799;49.060;9.312;2023-03-29T14:41:59;19.90;55.20
45060;DHT22;30799;49.060;9.312;2023-03-29T14:44:30;19.90;54.80
45060;DHT22;30799;49.060;9.312;2023-03-29T14:46:58;20.00;54.90
45060;DHT22;30799;49.060;9.312;2023-03-29T14:49:26;20.00;54.80
45060;DHT22;30799;49.060;9.312;2023-03-29T14:51:53;20.00;54.80
45060;DHT22;30799;49.060;9.312;2023-03-29T14:54:26;20.00;54.80
45060;DHT22;30799;49.060;9.312;2023-03-29T14:56:55;20.00;55.40
45060;DHT22;30799;49.060;9.312;2023-03-29T15:01:54;19.90;54.80
45060;DHT22;30799;49.060;9.312;2023-03-29T15:04:21;19.90;54.80
45060;DHT22;30799;49.060;9.312;2023-03-29T15:06:47;19.90;54.80
45060;DHT22;30799;49.060;9.312;2023-03-29T15:09:26;19.90;54.90
45060;DHT22;30799;49.060;9.312;2023-03-29T15:11:54;19.90;53.30
45060;DHT22;30799;49.060;9.312;2023-03-29T15:14:23;19.60;52.10
45060;DHT22;30799;49.060;9.312;2023-03-29T15:16:55;19.40;51.80
45060;DHT22;30799;49.060;9.312;2023-03-29T15:19:24;19.50;53.20
45060;DHT22;30799;49.060;9.312;2023-03-29T15:21:51;19.70;54.00
45060;DHT22;30799;49.060;9.312;2023-03-29T15:24:29;19.80;54.80
45060;DHT22;30799;49.060;9.312;2023-03-29T15:27:12;19.90;54.30
45060;DHT22;30799;49.060;9.312;2023-03-29T15:29:41;20.00;54.40
45060;DHT22;30799;49.060;9.312;2023-03-29T15:32:09;20.00;54.20
45060;DHT22;30799;49.060;9.312;2023-03-29T15:34:44;20.10;54.70
45060;DHT22;30799;49.060;9.312;2023-03-29T15:37:11;20.10;54.20
45060;DHT22;30799;49.060;9.312;2023-03-29T15:39:42;20.30;54.10
45060;DHT22;30799;49.060;9.312;2023-03-29T15:42:09;20.40;54.00
45060;DHT22;30799;49.060;9.312;2023-03-29T15:44:37;20.30;54.20
45060;DHT22;30799;49.060;9.312;2023-03-29T15:47:09;20.30;54.40
45060;DHT22;30799;49.060;9.312;2023-03-29T15:49:36;20.40;54.60
45060;DHT22;30799;49.060;9.312;2023-03-29T15:52:03;20.40;54.50
45060;DHT22;30799;49.060;9.312;2023-03-29T15:54:30;20.30;54.50
45060;DHT22;30799;49.060;9.312;2023-03-29T15:57:02;20.40;54.60
45060;DHT22;30799;49.060;9.312;2023-03-29T15:59:32;20.40;54.60
45060;DHT22;30799;49.060;9.312;2023-03-29T16:01:59;20.40;55.00
45060;DHT22;30799;49.060;9.312;2023-03-29T16:04:26;20.40;54.90
45060;DHT22;30799;49.060;9.312;2023-03-29T16:06:53;20.30;54.80
45060;DHT22;30799;49.060;9.312;2023-03-29T16:09:21;20.30;54.70
45060;DHT22;30799;49.060;9.312;2023-03-29T16:11:49;20.40;54.70
45060;DHT22;30799;49.060;9.312;2023-03-29T16:14:27;20.40;54.80
45060;DHT22;30799;49.060;9.312;2023-03-29T16:16:57;20.40;54.70
45060;DHT22;30799;49.060;9.312;2023-03-29T16:19:24;20.40;54.90
45060;DHT22;30799;49.060;9.312;2023-03-29T16:21:52;20.40;54.90
45060;DHT22;30799;49.060;9.312;2023-03-29T16:24:22;20.40;54.90
45060;DHT22;30799;49.060;9.312;2023-03-29T16:26:50;20.40;54.90
45060;DHT22;30799;49.060;9.312;2023-03-29T16:29:21;20.40;54.90
45060;DHT22;30799;49.060;9.312;2023-03-29T16:31:48;20.50;55.10
45060;DHT22;30799;49.060;9.312;2023-03-29T16:34:15;20.50;55.10
45060;DHT22;30799;49.060;9.312;2023-03-29T16:36:45;20.40;55.10
45060;DHT22;30799;49.060;9.312;2023-03-29T16:39:13;20.40;55.10
45060;DHT22;30799;49.060;9.312;2023-03-29T16:41:41;20.40;55.10
45060;DHT22;30799;49.060;9.312;2023-03-29T16:44:16;20.40;55.10
45060;DHT22;30799;49.060;9.312;2023-03-29T16:46:46;20.40;55.10
45060;DHT22;30799;49.060;9.312;2023-03-29T16:49:14;20.50;55.20
45060;DHT22;30799;49.060;9.312;2023-03-29T16:51:46;20.50;55.20
45060;DHT22;30799;49.060;9.312;2023-03-29T16:54:14;20.50;55.20
45060;DHT22;30799;49.060;9.312;2023-03-29T16:56:41;20.50;55.20
45060;DHT22;30799;49.060;9.312;2023-03-29T16:59:08;20.40;55.30
45060;DHT22;30799;49.060;9.312;2023-03-29T17:01:35;20.40;55.30
45060;DHT22;30799;49.060;9.312;2023-03-29T17:04:03;20.40;55.20
45060;DHT22;30799;49.060;9.312;2023-03-29T17:06:30;20.50;55.30
45060;DHT22;30799;49.060;9.312;2023-03-29T17:08:58;20.40;55.30
45060;DHT22;30799;49.060;9.312;2023-03-29T17:11:25;20.50;55.50
45060;DHT22;30799;49.060;9.312;2023-03-29T17:13:53;20.30;53.50